sensor_id;sensor_type;location;lat;lon;timestamp;pressure;altitude;pressure_sealevel;temperature;humidity
66479;BME280;53294;47.912;13.526;2023-05-27T00:01:13;96794.09;;;17.84;48.73
66479;BME280;53294;47.912;13.526;2023-05-27T00:03:40;96789.13;;;17.86;48.68
66479;BME280;53294;47.912;13.526;2023-05-27T00:06:07;96806.16;;;17.74;48.77
66479;BME280;53294;47.912;13.526;2023-05-27T00:08:34;96797.50;;;17.72;48.82
66479;BME280;53294;47.912;13.526;2023-05-27T00:11:01;96795.78;;;17.68;49.02
66479;BME280;53294;47.912;13.526;2023-05-27T00:13:28;96792.56;;;17.74;48.48
66479;BME280;53294;47.912;13.526;2023-05-27T00:15:55;96788.44;;;17.68;48.87
66479;BME280;53294;47.912;13.526;2023-05-27T00:18:22;96786.84;;;17.58;48.96
66479;BME280;53294;47.912;13.526;2023-05-27T00:20:49;96799.47;;;17.63;48.84
66479;BME280;53294;47.912;13.526;2023-05-27T00:23:15;96799.34;;;17.51;49.11
66479;BME280;53294;47.912;13.526;2023-05-27T00:25:43;96795.06;;;17.50;49.02
66479;BME280;53294;47.912;13.526;2023-05-27T00:28:10;96798.25;;;17.52;49.03
66479;BME280;53294;47.912;13.526;2023-05-27T00:30:37;96786.53;;;17.60;48.44
66479;BME280;53294;47.912;13.526;2023-05-27T00:33:03;96792.69;;;17.39;49.20
66479;BME280;53294;47.912;13.526;2023-05-27T00:35:30;96788.38;;;17.38;49.17
66479;BME280;53294;47.912;13.526;2023-05-27T00:37:57;96798.25;;;17.52;48.45
66479;BME280;53294;47.912;13.526;2023-05-27T00:40:26;96789.50;;;17.37;48.90
66479;BME280;53294;47.912;13.526;2023-05-27T00:42:53;96792.88;;;17.34;48.93
66479;BME280;53294;47.912;13.526;2023-05-27T00:45:20;96792.38;;;17.32;48.75
66479;BME280;53294;47.912;13.526;2023-05-27T00:47:47;96793.00;;;17.38;48.30
66479;BME280;53294;47.912;13.526;2023-05-27T00:50:15;96798.91;;;17.40;47.88
66479;BME280;53294;47.912;13.526;2023-05-27T00:52:44;96793.16;;;17.41;47.22
66479;BME280;53294;47.912;13.526;2023-05-27T00:55:11;96792.38;;;17.41;47.53
66479;BME280;53294;47.912;13.526;2023-05-27T00:57:38;96784.75;;;17.26;47.93
66479;BME280;53294;47.912;13.526;2023-05-27T01:00:05;96783.00;;;17.21;47.80
66479;BME280;53294;47.912;13.526;2023-05-27T01:02:38;96779.81;;;17.10;48.15
66479;BME280;53294;47.912;13.526;2023-05-27T01:05:10;96781.13;;;17.04;48.25
66479;BME280;53294;47.912;13.526;2023-05-27T01:07:44;96790.53;;;17.07;48.26
66479;BME280;53294;47.912;13.526;2023-05-27T01:10:36;96786.59;;;16.95;48.82
66479;BME280;53294;47.912;13.526;2023-05-27T01:15:54;96773.00;;;16.95;48.64
66479;BME280;53294;47.912;13.526;2023-05-27T01:18:24;96773.16;;;16.90;48.61
66479;BME280;53294;47.912;13.526;2023-05-27T01:21:02;96771.22;;;17.17;47.35
66479;BME280;53294;47.912;13.526;2023-05-27T01:23:29;96773.94;;;17.17;47.05
66479;BME280;53294;47.912;13.526;2023-05-27T01:25:57;96768.44;;;17.34;46.34
66479;BME280;53294;47.912;13.526;2023-05-27T01:28:23;96768.66;;;17.12;46.86
66479;BME280;53294;47.912;13.526;2023-05-27T01:30:55;96753.66;;;17.05;47.21
66479;BME280;53294;47.912;13.526;2023-05-27T01:33:24;96756.22;;;17.02;47.18
66479;BME280;53294;47.912;13.526;2023-05-27T01:35:59;96757.22;;;16.80;47.65
66479;BME280;53294;47.912;13.526;2023-05-27T01:38:28;96756.88;;;16.73;48.17
66479;BME280;53294;47.912;13.526;2023-05-27T01:40:58;96750.03;;;16.66;48.58
66479;BME280;53294;47.912;13.526;2023-05-27T01:43:26;96747.81;;;16.60;49.03
66479;BME280;53294;47.912;13.526;2023-05-27T01:45:53;96745.91;;;16.43;49.45
66479;BME280;53294;47.912;13.526;2023-05-27T01:48:20;96747.00;;;16.42;49.27
66479;BME280;53294;47.912;13.526;2023-05-27T01:50:47;96747.34;;;16.31;49.57
66479;BME280;53294;47.912;13.526;2023-05-27T01:53:14;96742.06;;;16.52;48.83
66479;BME280;53294;47.912;13.526;2023-05-27T01:55:41;96744.78;;;16.44;48.86
66479;BME280;53294;47.912;13.526;2023-05-27T01:58:07;96745.09;;;16.33;48.73
66479;BME280;53294;47.912;13.526;2023-05-27T02:00:34;96741.28;;;16.35;48.59
66479;BME280;53294;47.912;13.526;2023-05-27T02:03:01;96747.66;;;16.39;48.44
66479;BME280;53294;47.912;13.526;2023-05-27T02:05:28;96745.41;;;16.23;48.63
66479;BME280;53294;47.912;13.526;2023-05-27T02:07:55;96747.81;;;16.25;48.48
66479;BME280;53294;47.912;13.526;2023-05-27T02:10:22;96757.38;;;16.31;48.08
66479;BME280;53294;47.912;13.526;2023-05-27T02:12:48;96746.22;;;16.15;48.60
66479;BME280;53294;47.912;13.526;2023-05-27T02:15:15;96750.53;;;16.16;48.70
66479;BME280;53294;47.912;13.526;2023-05-27T02:17:42;96752.28;;;16.29;48.36
66479;BME280;53294;47.912;13.526;2023-05-27T02:20:11;96750.53;;;16.16;48.78
66479;BME280;53294;47.912;13.526;2023-05-27T02:22:38;96749.56;;;16.12;48.80
66479;BME280;53294;47.912;13.526;2023-05-27T02:25:05;96747.00;;;16.07;49.07
66479;BME280;53294;47.912;13.526;2023-05-27T02:27:32;96745.75;;;16.13;48.67
66479;BME280;53294;47.912;13.526;2023-05-27T02:29:58;96746.06;;;16.11;48.49
66479;BME280;53294;47.912;13.526;2023-05-27T02:32:25;96754.19;;;16.20;48.77
66479;BME280;53294;47.912;13.526;2023-05-27T02:34:52;96745.88;;;16.08;48.57
66479;BME280;53294;47.912;13.526;2023-05-27T02:37:19;96745.88;;;16.08;48.78
66479;BME280;53294;47.912;13.526;2023-05-27T02:39:45;96753.38;;;16.02;48.97
66479;BME280;53294;47.912;13.526;2023-05-27T02:42:12;96752.09;;;16.17;48.40
66479;BME280;53294;47.912;13.526;2023-05-27T02:44:39;96751.00;;;16.18;48.44
66479;BME280;53294;47.912;13.526;2023-05-27T02:47:06;96752.09;;;16.00;49.28
66479;BME280;53294;47.912;13.526;2023-05-27T02:49:32;96749.53;;;16.03;48.91
66479;BME280;53294;47.912;13.526;2023-05-27T02:51:59;96755.16;;;16.24;48.68
66479;BME280;53294;47.912;13.526;2023-05-27T02:54:26;96755.16;;;16.33;48.27
66479;BME280;53294;47.912;13.526;2023-05-27T02:56:52;96753.72;;;16.36;47.91
66479;BME280;53294;47.912;13.526;2023-05-27T02:59:19;96747.00;;;16.42;47.73
66479;BME280;53294;47.912;13.526;2023-05-27T03:01:46;96751.78;;;16.45;47.63
66479;BME280;53294;47.912;13.526;2023-05-27T03:04:12;96754.34;;;16.41;47.50
66479;BME280;53294;47.912;13.526;2023-05-27T03:06:39;96752.28;;;16.56;47.62
66479;BME280;53294;47.912;13.526;2023-05-27T03:09:06;96750.38;;;16.47;47.88
66479;BME280;53294;47.912;13.526;2023-05-27T03:11:33;96752.91;;;16.18;48.48
66479;BME280;53294;47.912;13.526;2023-05-27T03:14:00;96756.09;;;16.20;48.59
66479;BME280;53294;47.912;13.526;2023-05-27T03:16:27;96751.94;;;16.13;48.35
66479;BME280;53294;47.912;13.526;2023-05-27T03:18:54;96751.50;;;16.38;47.65
66479;BME280;53294;47.912;13.526;2023-05-27T03:21:21;96755.31;;;16.19;48.30
66479;BME280;53294;47.912;13.526;2023-05-27T03:23:47;96757.97;;;16.02;48.41
66479;BME280;53294;47.912;13.526;2023-05-27T03:26:14;96757.34;;;15.96;48.29
66479;BME280;53294;47.912;13.526;2023-05-27T03:28:41;96751.28;;;15.90;48.59
66479;BME280;53294;47.912;13.526;2023-05-27T03:31:08;96749.97;;;15.88;48.50
66479;BME280;53294;47.912;13.526;2023-05-27T03:33:35;96748.91;;;15.97;48.14
66479;BME280;53294;47.912;13.526;2023-05-27T03:36:03;96743.63;;;16.01;48.12
66479;BME280;53294;47.912;13.526;2023-05-27T03:38:30;96752.25;;;16.03;47.87
66479;BME280;53294;47.912;13.526;2023-05-27T03:40:57;96744.69;;;15.74;49.08
66479;BME280;53294;47.912;13.526;2023-05-27T03:43:24;96746.25;;;15.75;48.96
66479;BME280;53294;47.912;13.526;2023-05-27T03:45:51;96743.63;;;15.84;48.80
66479;BME280;53294;47.912;13.526;2023-05-27T03:48:18;96746.22;;;15.57;49.46
66479;BME280;53294;47.912;13.526;2023-05-27T03:50:44;96740.66;;;15.54;49.73
66479;BME280;53294;47.912;13.526;2023-05-27T03:53:11;96745.78;;;15.73;49.07
66479;BME280;53294;47.912;13.526;2023-05-27T03:55:38;96746.16;;;15.89;48.77
66479;BME280;53294;47.912;13.526;2023-05-27T03:58:05;96747.00;;;16.07;48.49
66479;BME280;53294;47.912;13.526;2023-05-27T04:00:31;96750.63;;;15.93;49.05
66479;BME280;53294;47.912;13.526;2023-05-27T04:02:59;96740.50;;;16.25;47.70
66479;BME280;53294;47.912;13.526;2023-05-27T04:05:26;96737.31;;;16.41;47.01
66479;BME280;53294;47.912;13.526;2023-05-27T04:07:53;96744.47;;;16.37;47.46
66479;BME280;53294;47.912;13.526;2023-05-27T04:10:20;96742.41;;;16.16;47.71
66479;BME280;53294;47.912;13.526;2023-05-27T04:12:46;96750.53;;;16.33;47.15
66479;BME280;53294;47.912;13.526;2023-05-27T04:15:13;96741.28;;;16.35;47.71
66479;BME280;53294;47.912;13.526;2023-05-27T04:17:40;96752.28;;;16.29;47.94
66479;BME280;53294;47.912;13.526;2023-05-27T04:20:07;96756.44;;;16.27;48.03
66479;BME280;53294;47.912;13.526;2023-05-27T04:22:42;96749.25;;;16.40;47.82
66479;BME280;53294;47.912;13.526;2023-05-27T04:25:09;96751.16;;;16.48;47.53
66479;BME280;53294;47.912;13.526;2023-05-27T04:27:36;96748.91;;;16.32;48.24
66479;BME280;53294;47.912;13.526;2023-05-27T04:30:06;96750.19;;;16.09;48.88
66479;BME280;53294;47.912;13.526;2023-05-27T04:32:36;96750.03;;;16.23;48.73
66479;BME280;53294;47.912;13.526;2023-05-27T04:35:05;96750.53;;;16.33;48.32
66479;BME280;53294;47.912;13.526;2023-05-27T04:37:35;96747.66;;;16.39;48.25
66479;BME280;53294;47.912;13.526;2023-05-27T04:40:07;96749.09;;;16.45;48.68
66479;BME280;53294;47.912;13.526;2023-05-27T04:42:35;96747.44;;;16.00;49.38
66479;BME280;53294;47.912;13.526;2023-05-27T04:45:06;96736.75;;;15.86;49.70
66479;BME280;53294;47.912;13.526;2023-05-27T04:47:33;96739.94;;;15.79;50.50
66479;BME280;53294;47.912;13.526;2023-05-27T04:50:00;96743.34;;;15.62;50.93
66479;BME280;53294;47.912;13.526;2023-05-27T04:52:27;96733.84;;;15.74;50.57
66479;BME280;53294;47.912;13.526;2023-05-27T04:54:54;96741.88;;;15.96;49.67
66479;BME280;53294;47.912;13.526;2023-05-27T04:57:23;96741.88;;;15.96;50.19
66479;BME280;53294;47.912;13.526;2023-05-27T04:59:50;96740.28;;;15.95;50.78
66479;BME280;53294;47.912;13.526;2023-05-27T05:02:45;96737.44;;;16.01;50.11
66479;BME280;53294;47.912;13.526;2023-05-27T05:05:14;96738.41;;;16.13;49.87
66479;BME280;53294;47.912;13.526;2023-05-27T05:07:42;96744.31;;;16.24;49.65
66479;BME280;53294;47.912;13.526;2023-05-27T05:10:10;96747.94;;;16.11;50.21
66479;BME280;53294;47.912;13.526;2023-05-27T05:12:38;96742.56;;;16.28;49.75
66479;BME280;53294;47.912;13.526;2023-05-27T05:15:06;96749.09;;;16.27;49.93
66479;BME280;53294;47.912;13.526;2023-05-27T05:17:33;96750.22;;;16.44;49.61
66479;BME280;53294;47.912;13.526;2023-05-27T05:20:00;96751.31;;;16.43;50.38
66479;BME280;53294;47.912;13.526;2023-05-27T05:22:27;96745.09;;;16.33;50.77
66479;BME280;53294;47.912;13.526;2023-05-27T05:24:55;96748.13;;;16.23;51.09
66479;BME280;53294;47.912;13.526;2023-05-27T05:27:23;96761.66;;;16.23;50.91
66479;BME280;53294;47.912;13.526;2023-05-27T05:29:50;96754.34;;;16.24;50.93
66479;BME280;53294;47.912;13.526;2023-05-27T05:32:16;96754.03;;;16.34;50.99
66479;BME280;53294;47.912;13.526;2023-05-27T05:34:43;96757.53;;;16.17;51.68
66479;BME280;53294;47.912;13.526;2023-05-27T05:37:10;96753.06;;;16.39;51.55
66479;BME280;53294;47.912;13.526;2023-05-27T05:39:41;96754.19;;;16.29;51.55
66479;BME280;53294;47.912;13.526;2023-05-27T05:42:08;96764.22;;;16.37;51.94
66479;BME280;53294;47.912;13.526;2023-05-27T05:44:35;96764.25;;;16.46;51.91
66479;BME280;53294;47.912;13.526;2023-05-27T05:47:02;96758.16;;;16.66;51.24
66479;BME280;53294;47.912;13.526;2023-05-27T05:49:29;96758.50;;;16.65;51.76
66479;BME280;53294;47.912;13.526;2023-05-27T05:51:56;96759.41;;;16.78;51.50
66479;BME280;53294;47.912;13.526;2023-05-27T05:54:22;96758.81;;;16.98;50.53
66479;BME280;53294;47.912;13.526;2023-05-27T05:56:49;96761.66;;;16.93;51.15
66479;BME280;53294;47.912;13.526;2023-05-27T05:59:16;96763.22;;;17.12;51.03
66479;BME280;53294;47.912;13.526;2023-05-27T06:01:43;96761.13;;;17.26;50.30
66479;BME280;53294;47.912;13.526;2023-05-27T06:04:09;96762.00;;;16.92;51.07
66479;BME280;53294;47.912;13.526;2023-05-27T06:06:36;96761.84;;;16.88;51.40
66479;BME280;53294;47.912;13.526;2023-05-27T06:09:03;96770.31;;;16.95;51.00
66479;BME280;53294;47.912;13.526;2023-05-27T06:11:30;96771.22;;;17.17;50.77
66479;BME280;53294;47.912;13.526;2023-05-27T06:13:57;96768.84;;;17.07;51.30
66479;BME280;53294;47.912;13.526;2023-05-27T06:16:23;96776.00;;;17.02;51.68
66479;BME280;53294;47.912;13.526;2023-05-27T06:18:50;96762.75;;;17.18;51.75
66479;BME280;53294;47.912;13.526;2023-05-27T06:21:18;96773.53;;;17.36;51.04
66479;BME280;53294;47.912;13.526;2023-05-27T06:23:45;96774.00;;;17.38;50.93
66479;BME280;53294;47.912;13.526;2023-05-27T06:26:11;96778.56;;;17.55;50.50
66479;BME280;53294;47.912;13.526;2023-05-27T06:28:38;96768.00;;;17.62;50.18
66479;BME280;53294;47.912;13.526;2023-05-27T06:31:05;96772.91;;;17.77;50.51
66479;BME280;53294;47.912;13.526;2023-05-27T06:33:31;96768.69;;;17.89;50.00
66479;BME280;53294;47.912;13.526;2023-05-27T06:35:58;96769.53;;;18.10;50.03
66479;BME280;53294;47.912;13.526;2023-05-27T06:38:25;96754.28;;;18.18;49.84
66479;BME280;53294;47.912;13.526;2023-05-27T06:40:52;96764.44;;;18.30;50.15
66479;BME280;53294;47.912;13.526;2023-05-27T06:43:19;96763.63;;;18.29;50.33
66479;BME280;53294;47.912;13.526;2023-05-27T06:45:46;96757.34;;;18.17;50.47
66479;BME280;53294;47.912;13.526;2023-05-27T06:48:28;96761.59;;;18.26;51.04
66479;BME280;53294;47.912;13.526;2023-05-27T06:50:55;96761.38;;;18.32;51.32
66479;BME280;53294;47.912;13.526;2023-05-27T06:53:22;96765.94;;;18.61;50.96
66479;BME280;53294;47.912;13.526;2023-05-27T06:55:49;96759.84;;;18.85;50.36
66479;BME280;53294;47.912;13.526;2023-05-27T06:58:15;96768.31;;;18.83;50.25
66479;BME280;53294;47.912;13.526;2023-05-27T07:00:42;96754.41;;;18.85;50.73
66479;BME280;53294;47.912;13.526;2023-05-27T07:03:09;96765.03;;;19.11;49.86
66479;BME280;53294;47.912;13.526;2023-05-27T07:05:36;96763.00;;;19.08;49.97
66479;BME280;53294;47.912;13.526;2023-05-27T07:08:03;96760.97;;;19.17;49.71
66479;BME280;53294;47.912;13.526;2023-05-27T07:10:29;96759.59;;;19.11;50.53
66479;BME280;53294;47.912;13.526;2023-05-27T07:12:56;96762.88;;;19.17;49.65
66479;BME280;53294;47.912;13.526;2023-05-27T07:15:25;96763.13;;;19.24;50.26
66479;BME280;53294;47.912;13.526;2023-05-27T07:17:52;96755.78;;;19.49;49.58
66479;BME280;53294;47.912;13.526;2023-05-27T07:20:18;96747.19;;;19.72;48.43
66479;BME280;53294;47.912;13.526;2023-05-27T07:22:45;96755.34;;;19.72;48.64
66479;BME280;53294;47.912;13.526;2023-05-27T07:25:12;96762.63;;;19.80;49.13
66479;BME280;53294;47.912;13.526;2023-05-27T07:27:39;96759.66;;;19.98;48.07
66479;BME280;53294;47.912;13.526;2023-05-27T07:30:06;96759.56;;;19.94;47.81
66479;BME280;53294;47.912;13.526;2023-05-27T07:32:33;96758.53;;;20.11;47.95
66479;BME280;53294;47.912;13.526;2023-05-27T07:35:00;96754.78;;;20.16;46.89
66479;BME280;53294;47.912;13.526;2023-05-27T07:37:27;96756.72;;;20.15;46.75
66479;BME280;53294;47.912;13.526;2023-05-27T07:39:54;96755.69;;;20.20;46.80
66479;BME280;53294;47.912;13.526;2023-05-27T07:42:21;96752.78;;;20.41;46.17
66479;BME280;53294;47.912;13.526;2023-05-27T07:44:49;96748.19;;;20.57;46.10
66479;BME280;53294;47.912;13.526;2023-05-27T07:47:16;96749.03;;;20.74;46.24
66479;BME280;53294;47.912;13.526;2023-05-27T07:49:42;96747.56;;;20.76;45.46
66479;BME280;53294;47.912;13.526;2023-05-27T07:52:09;96752.03;;;20.56;45.85
66479;BME280;53294;47.912;13.526;2023-05-27T07:54:36;96746.72;;;20.88;45.48
66479;BME280;53294;47.912;13.526;2023-05-27T07:57:19;96746.03;;;20.91;45.55
66479;BME280;53294;47.912;13.526;2023-05-27T07:59:46;96737.84;;;20.91;45.13
66479;BME280;53294;47.912;13.526;2023-05-27T08:02:12;96734.34;;;21.07;45.40
66479;BME280;53294;47.912;13.526;2023-05-27T08:04:39;96730.53;;;20.95;44.75
66479;BME280;53294;47.912;13.526;2023-05-27T08:07:06;96728.63;;;21.12;45.32
66479;BME280;53294;47.912;13.526;2023-05-27T08:09:33;96724.28;;;21.11;44.48
66479;BME280;53294;47.912;13.526;2023-05-27T08:12:00;96729.16;;;21.33;44.50
66479;BME280;53294;47.912;13.526;2023-05-27T08:14:27;96720.69;;;21.39;42.78
66479;BME280;53294;47.912;13.526;2023-05-27T08:16:54;96720.53;;;21.47;43.51
66479;BME280;53294;47.912;13.526;2023-05-27T08:19:21;96712.44;;;21.51;43.17
66479;BME280;53294;47.912;13.526;2023-05-27T08:21:48;96712.44;;;21.51;43.60
66479;BME280;53294;47.912;13.526;2023-05-27T08:24:15;96712.94;;;21.73;42.83
66479;BME280;53294;47.912;13.526;2023-05-27T08:26:41;96710.66;;;21.75;43.32
66479;BME280;53294;47.912;13.526;2023-05-27T08:29:08;96715.19;;;22.02;41.73
66479;BME280;53294;47.912;13.526;2023-05-27T08:31:36;96710.53;;;21.87;42.08
66479;BME280;53294;47.912;13.526;2023-05-27T08:34:04;96703.22;;;22.11;41.08
66479;BME280;53294;47.912;13.526;2023-05-27T08:36:31;96714.47;;;22.05;41.09
66479;BME280;53294;47.912;13.526;2023-05-27T08:38:59;96702.97;;;22.16;41.49
66479;BME280;53294;47.912;13.526;2023-05-27T08:41:26;96706.53;;;22.36;41.11
66479;BME280;53294;47.912;13.526;2023-05-27T08:43:53;96695.66;;;22.39;40.67
66479;BME280;53294;47.912;13.526;2023-05-27T08:46:41;96706.63;;;22.39;39.66
66479;BME280;53294;47.912;13.526;2023-05-27T08:49:08;96698.47;;;22.63;40.23
66479;BME280;53294;47.912;13.526;2023-05-27T08:51:37;96694.44;;;22.56;40.09
66479;BME280;53294;47.912;13.526;2023-05-27T08:54:05;96698.53;;;22.66;39.01
66479;BME280;53294;47.912;13.526;2023-05-27T08:56:35;96687.25;;;22.91;38.12
66479;BME280;53294;47.912;13.526;2023-05-27T08:59:02;96688.72;;;22.85;39.65
66479;BME280;53294;47.912;13.526;2023-05-27T09:01:30;96700.72;;;23.00;37.54
66479;BME280;53294;47.912;13.526;2023-05-27T09:03:58;96683.38;;;22.92;36.81
66479;BME280;53294;47.912;13.526;2023-05-27T09:06:25;96701.50;;;23.00;37.72
66479;BME280;53294;47.912;13.526;2023-05-27T09:08:52;96703.56;;;23.26;37.86
66479;BME280;53294;47.912;13.526;2023-05-27T09:11:23;96706.03;;;23.35;36.40
66479;BME280;53294;47.912;13.526;2023-05-27T09:13:55;96692.22;;;23.51;36.75
66479;BME280;53294;47.912;13.526;2023-05-27T09:16:23;96701.22;;;23.52;37.90
66479;BME280;53294;47.912;13.526;2023-05-27T09:18:50;96691.13;;;23.56;36.79
66479;BME280;53294;47.912;13.526;2023-05-27T09:21:17;96688.75;;;23.54;36.56
66479;BME280;53294;47.912;13.526;2023-05-27T09:23:44;96695.53;;;23.64;34.97
66479;BME280;53294;47.912;13.526;2023-05-27T09:26:12;96680.78;;;23.72;35.73
66479;BME280;53294;47.912;13.526;2023-05-27T09:28:39;96690.81;;;23.88;36.25
66479;BME280;53294;47.912;13.526;2023-05-27T09:31:08;96692.44;;;23.92;36.43
66479;BME280;53294;47.912;13.526;2023-05-27T09:33:39;96690.19;;;23.98;35.53
66479;BME280;53294;47.912;13.526;2023-05-27T09:36:07;96679.56;;;24.27;35.75
66479;BME280;53294;47.912;13.526;2023-05-27T09:38:36;96685.28;;;24.14;35.14
66479;BME280;53294;47.912;13.526;2023-05-27T09:41:03;96678.84;;;24.30;35.88
66479;BME280;53294;47.912;13.526;2023-05-27T09:43:30;96675.41;;;24.36;35.15
66479;BME280;53294;47.912;13.526;2023-05-27T09:48:26;96679.72;;;24.37;35.17
66479;BME280;53294;47.912;13.526;2023-05-27T09:50:54;96678.28;;;24.47;34.83
66479;BME280;53294;47.912;13.526;2023-05-27T09:53:21;96668.41;;;24.43;32.40
66479;BME280;53294;47.912;13.526;2023-05-27T09:55:49;96668.81;;;24.75;33.50
66479;BME280;53294;47.912;13.526;2023-05-27T09:58:16;96664.38;;;24.67;32.67
66479;BME280;53294;47.912;13.526;2023-05-27T10:00:44;96668.94;;;24.55;32.62
66479;BME280;53294;47.912;13.526;2023-05-27T10:03:12;96670.09;;;24.88;33.03
66479;BME280;53294;47.912;13.526;2023-05-27T10:05:40;96666.72;;;25.02;32.75
66479;BME280;53294;47.912;13.526;2023-05-27T10:08:08;96663.97;;;24.65;33.61
66479;BME280;53294;47.912;13.526;2023-05-27T10:10:51;96662.41;;;24.64;34.08
66479;BME280;53294;47.912;13.526;2023-05-27T10:13:19;96679.25;;;24.32;33.05
66479;BME280;53294;47.912;13.526;2023-05-27T10:15:48;96670.59;;;24.30;32.83
66479;BME280;53294;47.912;13.526;2023-05-27T10:18:27;96664.47;;;24.40;33.38
66479;BME280;53294;47.912;13.526;2023-05-27T10:20:58;96656.81;;;24.57;33.18
66479;BME280;53294;47.912;13.526;2023-05-27T10:23:27;96658.16;;;24.70;33.08
66479;BME280;53294;47.912;13.526;2023-05-27T10:26:04;96660.38;;;24.98;32.86
66479;BME280;53294;47.912;13.526;2023-05-27T10:28:37;96654.44;;;25.34;33.01
66479;BME280;53294;47.912;13.526;2023-05-27T10:33:42;96649.06;;;25.48;32.67
66479;BME280;53294;47.912;13.526;2023-05-27T10:36:13;96645.22;;;25.63;31.58
66479;BME280;53294;47.912;13.526;2023-05-27T10:39:03;96651.66;;;25.89;31.90
66479;BME280;53294;47.912;13.526;2023-05-27T10:41:42;96642.34;;;26.05;30.55
66479;BME280;53294;47.912;13.526;2023-05-27T10:44:10;96639.06;;;25.81;30.93
66479;BME280;53294;47.912;13.526;2023-05-27T10:46:41;96628.06;;;25.81;31.10
66479;BME280;53294;47.912;13.526;2023-05-27T10:49:22;96635.16;;;25.89;31.97
66479;BME280;53294;47.912;13.526;2023-05-27T10:51:49;96633.56;;;25.81;30.36
66479;BME280;53294;47.912;13.526;2023-05-27T10:54:16;96629.03;;;26.10;30.99
66479;BME280;53294;47.912;13.526;2023-05-27T10:56:55;96636.56;;;26.24;31.00
66479;BME280;53294;47.912;13.526;2023-05-27T10:59:22;96635.44;;;26.50;30.79
66479;BME280;53294;47.912;13.526;2023-05-27T11:01:51;96631.16;;;26.60;29.88
66479;BME280;53294;47.912;13.526;2023-05-27T11:04:19;96621.66;;;26.47;30.87
66479;BME280;53294;47.912;13.526;2023-05-27T11:06:58;96624.50;;;26.68;30.35
66479;BME280;53294;47.912;13.526;2023-05-27T11:09:54;96613.53;;;26.97;30.27
66479;BME280;53294;47.912;13.526;2023-05-27T11:12:23;96613.44;;;26.58;29.39
66479;BME280;53294;47.912;13.526;2023-05-27T11:14:55;96614.97;;;26.41;30.58
66479;BME280;53294;47.912;13.526;2023-05-27T11:17:22;96614.16;;;26.33;30.48
66479;BME280;53294;47.912;13.526;2023-05-27T11:19:50;96603.94;;;26.33;30.30
66479;BME280;53294;47.912;13.526;2023-05-27T11:22:18;96603.94;;;26.41;30.48
66479;BME280;53294;47.912;13.526;2023-05-27T11:25:06;96603.97;;;26.51;30.40
66479;BME280;53294;47.912;13.526;2023-05-27T11:27:36;96597.75;;;26.80;30.50
66479;BME280;53294;47.912;13.526;2023-05-27T11:30:08;96595.41;;;26.75;29.22
66479;BME280;53294;47.912;13.526;2023-05-27T11:32:40;96597.38;;;26.85;29.55
66479;BME280;53294;47.912;13.526;2023-05-27T11:35:14;96588.31;;;26.95;30.47
66479;BME280;53294;47.912;13.526;2023-05-27T11:37:45;96589.13;;;26.96;29.91
66479;BME280;53294;47.912;13.526;2023-05-27T11:40:12;96585.16;;;26.82;29.86
66479;BME280;53294;47.912;13.526;2023-05-27T11:42:46;96589.13;;;26.85;29.50
66479;BME280;53294;47.912;13.526;2023-05-27T11:45:21;96585.97;;;27.22;29.14
66479;BME280;53294;47.912;13.526;2023-05-27T11:47:48;96577.69;;;26.83;29.41
66479;BME280;53294;47.912;13.526;2023-05-27T11:50:20;96571.00;;;26.98;30.46
66479;BME280;53294;47.912;13.526;2023-05-27T11:52:52;96566.69;;;26.97;29.84
66479;BME280;53294;47.912;13.526;2023-05-27T11:55:19;96568.63;;;27.18;29.77
66479;BME280;53294;47.912;13.526;2023-05-27T11:57:46;96574.94;;;27.12;29.45
66479;BME280;53294;47.912;13.526;2023-05-27T12:00:13;96572.59;;;27.10;29.64
66479;BME280;53294;47.912;13.526;2023-05-27T12:02:40;96567.81;;;27.25;29.25
66479;BME280;53294;47.912;13.526;2023-05-27T12:05:09;96559.16;;;27.45;29.24
66479;BME280;53294;47.912;13.526;2023-05-27T12:07:47;96565.47;;;27.20;28.46
66479;BME280;53294;47.912;13.526;2023-05-27T12:10:15;96577.28;;;27.24;29.59
66479;BME280;53294;47.912;13.526;2023-05-27T12:12:42;96561.09;;;27.62;28.92
66479;BME280;53294;47.912;13.526;2023-05-27T12:15:10;96560.72;;;27.53;28.68
66479;BME280;53294;47.912;13.526;2023-05-27T12:17:37;96548.13;;;27.52;28.93
66479;BME280;53294;47.912;13.526;2023-05-27T12:20:04;96558.00;;;27.31;28.38
66479;BME280;53294;47.912;13.526;2023-05-27T12:22:32;96564.25;;;27.61;29.05
66479;BME280;53294;47.912;13.526;2023-05-27T12:24:59;96555.97;;;27.64;28.58
66479;BME280;53294;47.912;13.526;2023-05-27T12:27:26;96557.63;;;27.36;27.89
66479;BME280;53294;47.912;13.526;2023-05-27T12:29:53;96548.94;;;27.38;27.78
66479;BME280;53294;47.912;13.526;2023-05-27T12:32:20;96550.78;;;27.81;29.00
66479;BME280;53294;47.912;13.526;2023-05-27T12:34:46;96544.09;;;27.74;28.66
66479;BME280;53294;47.912;13.526;2023-05-27T12:37:13;96548.50;;;27.61;27.80
66479;BME280;53294;47.912;13.526;2023-05-27T12:39:40;96545.63;;;27.90;27.49
66479;BME280;53294;47.912;13.526;2023-05-27T12:42:07;96544.06;;;27.92;27.24
66479;BME280;53294;47.912;13.526;2023-05-27T12:44:33;96544.09;;;27.74;27.34
66479;BME280;53294;47.912;13.526;2023-05-27T12:47:00;96534.63;;;27.83;27.63
66479;BME280;53294;47.912;13.526;2023-05-27T12:49:27;96540.13;;;27.86;27.65
66479;BME280;53294;47.912;13.526;2023-05-27T12:51:54;96538.53;;;27.89;27.16
66479;BME280;53294;47.912;13.526;2023-05-27T12:54:21;96525.16;;;27.84;27.29
66479;BME280;53294;47.912;13.526;2023-05-27T12:56:48;96527.59;;;27.67;27.64
66479;BME280;53294;47.912;13.526;2023-05-27T12:59:15;96528.78;;;27.66;27.86
66479;BME280;53294;47.912;13.526;2023-05-27T13:01:42;96528.31;;;27.82;28.50
66479;BME280;53294;47.912;13.526;2023-05-27T13:04:08;96527.91;;;27.84;28.60